Jonesboro, Oregon
Current Conditions -  °F | °C
As of 3:53 AM on Friday 19 Dec 2014 (Local Time) from KONO Reporting Station
Overcast Overcast  
Wind Chill: 37°   Ceiling: 8000
Heat Index: 37°   Visibility: 8mi
Dew Point: 35°   Wind: 3mph
Humidity: 93%   Direction: 290°WNW
Pressure: 30.07"   Gusts: NA
Location:  43.79°N, 117.941°W
Report Text: KONO 191053Z AUTO 29003KT 8SM OVC080 03/02 A3007 RMK AO2 SLP195 T00280017
Loading
Personal Weather Stations






























Interactive Weather Map New forecast layout! Learn more

10-Day Weather Forecast

Advertisements
Track Severe Weather on mobile